Latest Weather Observations for Mount Keith

IDW60801

Issued at 4:04 pm WST Monday 25 September 2017 (issued every 30 minutes, with the page automatically refreshed every 10 minutes)

About weather observations | Map of weather stations | Latest weather observations for WA | Other Formats
Station Details ID: 512019 Name: MOUNT KEITH Lat: -27.29 Lon: 120.55 Height: 542.33 m
Data from the previous 72 hours. | See also: Recent months for locations in Western Australia
Date/Time
WST
Temp
°C
App
Temp
°C
Dew
Point
°C
Rel
Hum
%
Delta-T
°C
Wind Press
QNH
hPa
Press
MSL
hPa
Rain since
9am
mm
Dir  Spd
km/h
Gust
km/h
Spd
kts
Gust
kts
25/04:00pm 20.9 10.9 0.7 26 9.4 WNW 43 59 23 32 1007.6 1005.8 0.0
25/03:30pm 20.0 11.9 1.0 28 8.8 NW 33 54 18 29 1007.4 1005.6 0.0
25/03:00pm 20.5 12.1 1.4 28 9.0 WNW 35 57 19 31 1007.5 1005.7 0.0
25/02:38pm 20.9 12.5 1.7 28 9.1 WNW 35 54 19 29 1007.6 1005.8 0.0
25/02:30pm 20.7 12.7 1.6 28 9.0 WNW 33 46 18 25 1007.4 1005.6 0.0
25/02:28pm 20.0 11.6 1.4 29 8.7 WNW 35 50 19 27 1007.5 1005.7 0.0
25/02:20pm 20.3 12.6 2.2 30 8.6 NW 32 50 17 27 1007.5 1005.7 0.0
25/02:00pm 19.8 12.2 2.6 32 8.2 W 32 46 17 25 1007.8 1006.0 0.0
25/01:30pm 19.3 12.9 5.0 39 7.1 WNW 28 43 15 23 1008.0 1006.2 0.0
25/01:00pm 19.1 12.5 5.9 42 6.7 WNW 30 54 16 29 1008.6 1006.8 0.0
25/12:46pm 18.8 12.2 6.0 43 6.5 NW 30 48 16 26 1008.7 1006.9 0.0
25/12:30pm 18.4 11.0 6.9 47 5.9 WNW 35 52 19 28 1008.9 1007.2 0.0
25/12:24pm 17.8 11.1 7.2 50 5.5 WNW 32 52 17 28 1008.9 1007.2 0.0
25/12:00pm 18.0 11.2 7.1 49 5.6 WNW 32 44 17 24 1009.1 1007.4 0.0
25/11:30am 18.4 11.6 6.9 47 5.9 WNW 32 43 17 23 1009.3 1007.5 0.0
25/11:00am 17.6 11.8 7.9 53 5.1 WNW 28 41 15 22 1009.8 1008.0 0.0
25/10:33am 15.9 8.0 9.3 65 3.5 WNW 41 61 22 33 1010.0 1008.2 0.0
25/10:30am 15.1 7.4 8.8 66 3.3 WNW 39 61 21 33 1010.0 1008.2 0.0
25/10:25am 18.0 11.1 6.5 47 5.9 WNW 32 54 17 29 1009.6 1007.8 0.0
25/10:00am 17.1 11.2 7.5 53 5.0 WNW 28 39 15 21 1009.9 1008.1 0.0
25/09:30am 16.2 10.0 7.9 58 4.3 WNW 30 44 16 24 1010.2 1008.4 0.0
25/09:00am 16.7 11.8 8.4 58 4.4 NW 24 35 13 19 1010.2 1008.4 0.0
25/08:30am 15.4 10.8 8.2 62 3.7 WNW 22 32 12 17 1010.2 1008.4 0.0
25/08:00am 15.3 10.6 7.8 61 3.9 W 22 35 12 19 1010.2 1008.4 0.0
25/07:30am 14.2 11.4 8.6 69 2.9 WNW 13 17 7 9 1010.1 1008.3 0.0
25/07:00am 13.0 10.8 6.4 64 3.3 W 7 11 4 6 1009.7 1007.9 0.0
25/06:30am 12.3 10.1 6.4 67 2.9 WNW 7 11 4 6 1009.8 1008.0 0.0
25/06:00am 12.0 9.2 5.2 63 3.2 W 9 13 5 7 1009.5 1007.7 0.0
25/05:30am 12.0 8.5 5.6 65 3.1 WSW 13 15 7 8 1009.4 1007.6 0.0
25/05:00am 11.5 7.7 4.0 60 3.5 WSW 13 17 7 9 1009.1 1007.4 0.0
25/04:30am 11.6 8.2 3.9 59 3.5 WSW 11 13 6 7 1009.0 1007.3 0.0
25/04:00am 12.1 8.6 3.6 56 3.9 WSW 11 13 6 7 1008.7 1006.9 0.0
25/03:30am 12.9 8.7 3.8 54 4.2 WSW 15 19 8 10 1008.5 1006.7 0.0
25/03:00am 13.7 8.6 4.0 52 4.6 W 20 26 11 14 1008.6 1006.8 0.0
25/02:30am 15.2 9.4 4.3 48 5.2 W 24 35 13 19 1008.2 1006.4 0.0
25/02:00am 13.6 10.6 3.9 52 4.6 NW 9 13 5 7 1008.0 1006.2 0.0
25/01:30am 13.4 9.9 3.5 51 4.6 NNW 11 13 6 7 1008.2 1006.4 0.0
25/01:00am 13.9 10.3 3.1 48 5.0 NNW 11 13 6 7 1008.3 1006.5 0.0
25/12:30am 14.6 11.0 2.8 45 5.4 NNW 11 13 6 7 1008.4 1006.6 0.0
25/12:00am 14.0 10.7 2.6 46 5.2 NNW 9 13 5 7 1008.5 1006.7 0.0
 
Date/Time
WST
Temp
°C
App
Temp
°C
Dew
Point
°C
Rel
Hum
%
Delta-T
°C
Wind Press
QNH
hPa
Press
MSL
hPa
Rain since
9am
mm
Dir  Spd
km/h
Gust
km/h
Spd
kts
Gust
kts
24/11:30pm 14.6 10.9 2.5 44 5.5 NNW 11 15 6 8 1008.7 1006.9 0.0
24/11:00pm 14.5 11.2 2.4 44 5.5 NNW 9 13 5 7 1008.8 1007.1 0.0
24/10:30pm 14.6 11.8 2.2 43 5.6 NW 6 7 3 4 1009.1 1007.4 0.0
24/10:00pm 15.7 12.4 2.2 40 6.2 WNW 9 11 5 6 1009.4 1007.6 0.0
24/09:30pm 16.5 12.7 1.8 37 6.7 NW 11 13 6 7 1009.6 1007.8 0.0
24/09:00pm 17.4 12.9 2.2 36 7.1 WNW 15 20 8 11 1009.7 1007.9 0.0
24/08:30pm 17.5 12.9 1.5 34 7.4 WNW 15 20 8 11 1009.6 1007.8 0.0
24/08:00pm 17.1 13.6 1.1 34 7.3 NW 9 11 5 6 1009.3 1007.5 0.0
24/07:30pm 17.9 14.4 1.0 32 7.7 NW 9 11 5 6 1008.9 1007.2 0.0
24/07:00pm 18.4 14.9 1.4 32 7.9 WNW 9 11 5 6 1008.7 1006.9 0.0
24/06:30pm 19.5 14.4 1.0 29 8.6 WNW 17 22 9 12 1008.5 1006.7 0.0
24/06:00pm 20.0 14.6 1.0 28 8.8 WNW 19 28 10 15 1008.4 1006.6 0.0
24/05:30pm 20.8 13.7 1.1 27 9.2 WNW 28 35 15 19 1008.2 1006.4 0.0
24/05:00pm 21.6 15.4 2.3 28 9.3 WNW 24 37 13 20 1008.1 1006.3 0.0
24/04:30pm 22.3 16.9 2.4 27 9.7 NW 20 32 11 17 1008.0 1006.2 0.0
24/04:00pm 21.4 14.8 2.2 28 9.2 WNW 26 39 14 21 1008.1 1006.3 0.0
24/03:30pm 21.5 16.1 2.7 29 9.1 NW 20 39 11 21 1008.2 1006.4 0.0
24/03:00pm 21.7 16.4 2.9 29 9.2 NW 20 35 11 19 1008.3 1006.5 0.0
24/02:30pm 21.8 16.3 3.9 31 8.9 NW 22 41 12 22 1008.5 1006.7 0.0
24/02:00pm 21.0 15.1 3.7 32 8.5 WNW 24 37 13 20 1008.8 1007.1 0.0
24/01:30pm 20.8 14.2 4.4 34 8.2 WNW 28 37 15 20 1009.4 1007.6 0.0
24/01:00pm 20.0 15.0 4.5 36 7.7 W 20 35 11 19 1009.8 1008.0 0.0
24/12:30pm 20.7 14.9 4.3 34 8.2 WNW 24 35 13 19 1010.0 1008.2 0.0
24/12:00pm 19.5 13.3 4.4 37 7.5 WSW 26 37 14 20 1010.6 1008.9 0.0
24/11:30am 19.2 14.9 5.3 40 7.0 WNW 17 26 9 14 1010.9 1009.2 0.0
24/11:00am 19.1 14.4 6.2 43 6.6 WSW 20 35 11 19 1011.3 1009.5 0.0
24/10:30am 18.9 15.2 6.1 43 6.5 WNW 15 26 8 14 1011.7 1009.9 0.0
24/10:00am 17.8 13.3 6.3 47 5.8 SW 19 26 10 14 1011.8 1010.0 0.0
24/09:30am 17.2 15.0 6.4 49 5.5 SSW 7 11 4 6 1012.0 1010.2 0.0
24/09:00am 16.4 12.4 6.5 52 5.0 SW 17 20 9 11 1012.5 1010.8 0.0
24/08:30am 15.9 11.3 5.8 51 5.0 SSW 19 26 10 14 1012.3 1010.6 0.0
24/08:00am 15.0 10.4 5.5 53 4.7 SSW 19 24 10 13 1012.2 1010.5 0.0
24/07:30am 14.8 10.4 4.8 51 4.8 SW 17 20 9 11 1012.1 1010.4 0.0
24/07:00am 14.0 8.9 2.9 47 5.1 W 19 24 10 13 1011.9 1010.1 0.0
24/06:30am 12.7 9.2 3.4 53 4.3 W 11 13 6 7 1011.4 1009.6 0.0
24/06:00am 9.5 7.8 2.1 60 3.2 CALM 0 0 0 0 1010.9 1009.2 0.0
24/05:30am 9.2 6.4 1.9 60 3.1 NNW 6 7 3 4 1010.9 1009.2 0.0
24/05:00am 9.3 6.3 1.7 59 3.3 NNW 7 9 4 5 1010.9 1009.2 0.0
24/04:30am 9.9 6.8 1.5 56 3.6 NW 7 9 4 5 1010.9 1009.2 0.0
24/04:00am 10.4 7.4 2.3 57 3.6 WNW 7 9 4 5 1010.7 1009.0 0.0
24/03:30am 10.3 7.3 1.7 55 3.7 WNW 7 9 4 5 1010.7 1009.0 0.0
24/03:00am 10.8 7.8 1.9 54 3.9 W 7 9 4 5 1010.8 1009.1 0.0
24/02:30am 11.3 8.3 1.8 52 4.2 W 7 9 4 5 1011.3 1009.5 0.0
24/02:00am 11.8 8.4 2.0 51 4.3 W 9 11 5 6 1011.4 1009.6 0.0
24/01:30am 11.8 8.4 1.7 50 4.4 W 9 11 5 6 1011.6 1009.8 0.0
24/01:00am 12.1 8.7 2.0 50 4.5 W 9 11 5 6 1011.8 1010.0 0.0
24/12:30am 12.7 8.9 2.0 48 4.8 WSW 11 13 6 7 1012.1 1010.4 0.0
24/12:00am 12.9 9.1 1.9 47 4.9 W 11 11 6 6 1012.4 1010.7 0.0
 
Date/Time
WST
Temp
°C
App
Temp
°C
Dew
Point
°C
Rel
Hum
%
Delta-T
°C
Wind Press
QNH
hPa
Press
MSL
hPa
Rain since
9am
mm
Dir  Spd
km/h
Gust
km/h
Spd
kts
Gust
kts
23/11:30pm 13.4 9.6 1.7 45 5.2 W 11 11 6 6 1012.7 1011.0 0.0
23/11:00pm 14.4 10.6 2.0 43 5.6 WSW 11 13 6 7 1012.9 1011.2 0.0
23/10:30pm 15.1 11.3 2.0 41 6.0 W 11 13 6 7 1013.2 1011.4 0.0
23/10:00pm 15.6 11.4 1.7 39 6.3 W 13 15 7 8 1013.3 1011.5 0.0
23/09:30pm 16.0 11.7 1.3 37 6.6 WSW 13 17 7 9 1013.5 1011.7 0.0
23/09:00pm 16.4 12.5 1.3 36 6.8 WSW 11 13 6 7 1013.7 1011.9 0.0
23/08:30pm 16.7 13.2 1.2 35 7.0 WSW 9 11 5 6 1013.9 1012.2 0.0
23/08:00pm 17.1 13.6 1.5 35 7.1 W 9 11 5 6 1013.7 1011.9 0.0
23/07:30pm 18.3 14.4 1.3 32 7.8 W 11 15 6 8 1013.4 1011.6 0.0
23/07:00pm 18.7 15.2 1.2 31 8.1 WNW 9 11 5 6 1012.9 1011.2 0.0
23/06:30pm 19.7 15.8 1.2 29 8.6 W 11 17 6 9 1012.5 1010.8 0.0
23/06:00pm 20.3 15.6 1.2 28 8.9 W 15 20 8 11 1012.4 1010.7 0.0
23/05:30pm 20.9 15.5 1.2 27 9.2 W 19 26 10 14 1012.4 1010.7 0.0
23/05:00pm 21.5 16.5 1.2 26 9.6 WNW 17 30 9 16 1012.4 1010.7 0.0
23/04:30pm 21.8 16.2 0.9 25 9.8 W 20 28 11 15 1012.4 1010.7 0.0
23/04:00pm 22.7 17.4 1.7 25 10.1 WNW 19 30 10 16 1012.2 1010.5 0.0
23/03:30pm 22.6 16.7 1.6 25 10.1 W 22 43 12 23 1012.2 1010.5 0.0
23/03:00pm 22.0 16.0 1.1 25 9.9 W 22 32 12 17 1012.3 1010.6 0.0
23/02:30pm 21.5 16.1 1.2 26 9.6 W 19 28 10 15 1012.5 1010.8 0.0
23/02:00pm 21.7 16.3 2.4 28 9.3 WNW 20 33 11 18 1012.7 1011.0 0.0
23/01:30pm 21.9 17.1 2.6 28 9.4 W 17 28 9 15 1013.0 1011.3 0.0
23/01:00pm 20.2 14.4 2.1 30 8.6 W 22 33 12 18 1013.6 1011.8 0.0
23/12:30pm 20.4 15.0 2.7 31 8.5 W 20 30 11 16 1014.0 1012.3 0.0
23/12:00pm 20.1 15.0 2.9 32 8.3 WNW 19 28 10 15 1014.3 1012.6 0.0
23/11:30am 18.8 12.7 3.0 35 7.6 W 24 35 13 19 1014.8 1013.1 0.0
23/11:00am 18.4 12.3 2.7 35 7.4 WNW 24 43 13 23 1015.2 1013.4 0.0
23/10:30am 18.0 12.5 3.9 39 6.8 W 22 37 12 20 1015.4 1013.7 0.0
23/10:00am 17.0 10.8 4.3 43 6.1 W 26 37 14 20 1015.7 1014.0 0.0
23/09:30am 16.2 10.1 4.9 47 5.5 WSW 26 43 14 23 1015.7 1014.0 0.0
23/09:00am 15.9 10.3 5.5 50 5.1 WSW 24 37 13 20 1015.9 1014.2 0.0
23/08:30am 15.0 9.1 6.0 55 4.5 WSW 26 35 14 19 1015.8 1014.1 0.0
23/08:00am 14.1 9.4 6.2 59 3.9 WSW 20 30 11 16 1015.8 1014.1 0.0
23/07:30am 13.3 8.7 6.4 63 3.4 W 20 26 11 14 1015.6 1013.9 0.0
23/07:00am 12.2 7.9 5.4 63 3.3 W 17 26 9 14 1015.2 1013.4 0.0
23/06:30am 11.2 7.5 4.7 64 3.0 WSW 13 17 7 9 1014.6 1012.9 0.0
23/06:00am 10.7 7.0 4.4 65 2.9 WSW 13 17 7 9 1014.3 1012.6 0.0
23/05:30am 11.1 7.0 4.3 63 3.1 WSW 15 20 8 11 1014.1 1012.4 0.0
23/05:00am 11.3 7.9 4.1 61 3.3 W 11 17 6 9 1013.9 1012.2 0.0
23/04:30am 12.1 7.2 4.1 58 3.7 WSW 19 24 10 13 1013.7 1011.9 0.0
23/04:00am 12.4 7.6 4.6 59 3.7 WSW 19 26 10 14 1013.6 1011.8 0.0
23/03:30am 12.7 10.1 7.6 71 2.6 WSW 11 13 6 7 1013.4 1011.6 0.0
23/03:00am 13.3 10.4 8.2 71 2.6 W 13 15 7 8 1013.2 1011.4 0.0
23/02:30am 13.8 11.0 8.4 70 2.8 W 13 17 7 9 1013.2 1011.4 0.0
23/02:00am 14.2 11.4 8.6 69 2.9 W 13 19 7 10 1013.3 1011.5 0.0
23/01:30am 14.7 12.0 8.9 68 3.0 W 13 17 7 9 1013.4 1011.6 0.0
23/01:00am 14.9 11.4 8.8 67 3.2 W 17 20 9 11 1013.5 1011.7 0.0
23/12:30am 15.2 11.3 8.7 65 3.4 WSW 19 28 10 15 1013.6 1011.8 0.0
23/12:00am 15.4 10.6 8.9 65 3.4 WSW 24 32 13 17 1013.7 1011.9 0.0
 
Date/Time
WST
Temp
°C
App
Temp
°C
Dew
Point
°C
Rel
Hum
%
Delta-T
°C
Wind Press
QNH
hPa
Press
MSL
hPa
Rain since
9am
mm
Dir  Spd
km/h
Gust
km/h
Spd
kts
Gust
kts
22/11:30pm 15.7 11.9 9.1 65 3.5 WSW 19 28 10 15 1013.6 1011.8 0.0
22/11:00pm 16.0 11.3 9.2 64 3.6 WSW 24 32 13 17 1013.6 1011.8 0.0
22/10:30pm 16.6 12.3 9.3 62 3.9 WSW 22 32 12 17 1013.4 1011.6 0.0
22/10:00pm 17.0 12.7 9.4 61 4.1 SW 22 30 12 16 1013.2 1011.4 0.0
22/09:30pm 17.8 12.1 9.7 59 4.4 WSW 30 43 16 23 1012.9 1011.2 0.0
22/09:00pm 20.4 13.8 6.0 39 7.4 W 30 44 16 24 1012.5 1010.8 0.0
22/08:30pm 21.3 15.0 5.6 36 8.0 WSW 28 39 15 21 1012.1 1010.4 0.0
22/08:03pm 22.1 14.8 7.1 38 7.9 W 35 56 19 30 1011.7 1009.9 0.0
22/08:00pm 22.2 15.4 7.6 39 7.8 W 33 43 18 23 1011.6 1009.8 0.0
22/07:34pm 23.3 15.8 6.1 33 9.0 W 35 54 19 29 1010.9 1009.2 0.0
22/07:30pm 23.4 15.0 5.8 32 9.2 WNW 39 54 21 29 1010.8 1009.1 0.0
22/07:00pm 24.0 15.6 5.4 30 9.7 WNW 39 50 21 27 1010.2 1008.4 0.0
22/06:35pm 24.5 15.3 5.3 29 10.0 WNW 43 61 23 33 1009.8 1008.0 0.0
22/06:30pm 24.6 14.9 5.9 30 9.8 WNW 46 61 25 33 1009.7 1007.9 0.0
22/06:07pm 24.9 17.6 7.1 32 9.6 WNW 35 59 19 32 1009.3 1007.5 0.0
22/06:00pm 25.0 17.3 7.2 32 9.6 WNW 37 52 20 28 1009.3 1007.5 0.0
22/05:37pm 25.4 17.9 8.0 33 9.5 WNW 37 56 20 30 1009.0 1007.3 0.0
22/05:30pm 25.5 17.2 7.6 32 9.7 WNW 41 56 22 30 1009.0 1007.3 0.0
22/05:06pm 26.0 18.8 7.6 31 10.0 WNW 35 56 19 30 1008.7 1006.9 0.0
22/05:00pm 26.1 18.4 7.2 30 10.3 WNW 37 52 20 28 1008.7 1006.9 0.0
22/04:30pm 26.6 17.5 6.6 28 10.8 WNW 44 69 24 37 1008.5 1006.7 0.0

Other Formats:

Comma delimited format used in spreadsheet applications
http://www.bom.gov.au/fwo/IDW60801/IDW60801.99434.axf

JavaScript Object Notation format (JSON) in row-major order
http://www.bom.gov.au/fwo/IDW60801/IDW60801.99434.json